Archival Weather

Snohomish County (Paine Fld)

Everett, Washington (KPAE)

Report from: Friday, November 17, 2023 12:53 PM PST
Current time: Monday, June 24, 2024 3:54 AM PDT

Current weather – Weather history – Daily summaries
Weather forecast

Temperature8.9°C (48.0°F)
Wind chill8.3°C (47.0°F)
Dew point-0.6°C (30.9°F)
Winds 3 kts (1.5 m/s, 3.5 mph) North (10°)
Visibility10 mi. (16.1 km)
Clouds Sky clear
Altimeter30.02 in.Hg (1017 mB)
Relative humidity51 %
Density altitude-768 ft. (-234 m)
Sea-level pressure101.7 kPa (1017 mB, 30.03 in.Hg)
Remarks Automated weather observing station with precipitation discriminator
Pressure falling more quickly
Flight conditions Visual Meteorological Conditions
Raw dataKPAE 172053Z 01003KT 10SM CLR 09/M01 A3002 RMK AO2 SLP170 T00891006 58016
An error has occurred. This application may no longer respond until reloaded. Reload 🗙